Airfield :
LOGIN :

Register | Disclaimer

   EN    FR    IT 

 










Legend :    VFR   Marginal VFR   IFR   Intensive IFR   Very Intensive IFR
Visi :
Ceiling :
>= 8 km
>= 3000ft
5 to 8 km
1000 to 3000 ft
1500m to 5 km
500 to 1000 ft
800 to 1500m
200 to 500 ft
< 800m
< 200 ft
Symbols :   Thunderstorms  Fog  Heavy snow  Heavy precipitations  Wind > 20 kt
SIGMETs :     Misc.  Thunderstorms  Icing  Turbulence  Mountain Waves  Volcanic Ashes







- Airport Elevation : 885 ft
- IATA code : BAS
- Download approach charts


LFSB - Bale-Mulhouse

CURRENT METAR :
  • 261230Z 36005KT 280V080 CAVOK 25/11 Q1018 TEMPO 08008KT

EXPIRED METARs :
  • 261200Z 02006KT 300V060 CAVOK 25/11 Q1018 TEMPO 08008KT
  • 261130Z 02005KT 330V070 CAVOK 24/10 Q1018 TEMPO 08008KT
  • 261100Z 35006KT 300V060 CAVOK 23/11 Q1019 NOSIG
  • 261030Z 01005KT 280V070 CAVOK 23/11 Q1019 NOSIG
  • 261000Z 35005KT 280V040 CAVOK 22/11 Q1019 NOSIG

TAF AMD TAF LFSB
Valid from the 26 at 12:00 until the 27 at 12:00 UTC


261129Z 2612/2712 02006KT CAVOK
TEMPO 2612/2618 08008KT
BECMG 2618/2620 11007KT
BECMG 2709/2711 VRB03KT
Met : +33 3 89 90 31 11
No reported NOTAMs for that airfield.



MET'MAP, your aeronautical weather chart ! - Copyright ORBIFLY December 2007 - Disclaimer

ORBIFLY MET'MAP TEAM :

Programming & Development : Alexandra Zaïnal
Concept & Development : Baudouin d'Aumeries
Co-Development & Prog : Marc-Olivier Méhu
Technical & hardware support : Manuel Goepfert

Contact : metmap@orbifly.com




SOURCES & CREDITS :

   NOAA